Time;durP1;ratioP1;P1;durP2;ratioP2;P2;SDS_P1;SDS_P2;PMS_P1;PMS_P2;Temp;Humidity;BMP_temperature;BMP_pressure;BME280_temperature;BME280_humidity;BME280_pressure;Samples;Min_cycle;Max_cycle;Signal;HPM_P1;HPM_P2
2022/08/21 00:00:47;;;;;;;11.87;7.13;;;;;;;14.36;98.23;101576.28;5043377;28;20511;-87
2022/08/21 00:03:13;;;;;;;13.50;7.17;;;;;;;14.38;98.57;101581.53;5043539;28;20447;-87
2022/08/21 00:05:45;;;;;;;9.07;6.87;;;;;;;14.30;99.13;101577.16;5043169;28;20510;-87
2022/08/21 00:08:11;;;;;;;10.13;6.80;;;;;;;14.28;99.11;101582.81;5043429;28;20033;-87
2022/08/21 00:10:36;;;;;;;10.90;6.90;;;;;;;14.29;98.89;101573.59;5045726;28;20041;-87
2022/08/21 00:13:04;;;;;;;10.23;6.47;;;;;;;14.26;98.38;101573.19;5042777;28;20043;-87
2022/08/21 00:15:34;;;;;;;12.50;7.43;;;;;;;14.32;98.35;101581.34;5042863;28;20064;-87
2022/08/21 00:18:00;;;;;;;16.13;8.43;;;;;;;14.24;97.46;101570.69;5042898;28;20704;-87
2022/08/21 00:20:26;;;;;;;10.03;7.10;;;;;;;14.24;97.64;101576.13;5042723;28;20045;-86
2022/08/21 00:22:52;;;;;;;14.47;8.27;;;;;;;14.16;97.61;101568.22;5044057;28;20564;-87
2022/08/21 00:25:18;;;;;;;11.27;7.63;;;;;;;14.26;97.71;101568.56;5042575;28;20049;-87
2022/08/21 00:27:46;;;;;;;13.53;8.67;;;;;;;14.22;97.41;101570.06;5043631;28;20523;-87
2022/08/21 00:30:14;;;;;;;11.97;7.67;;;;;;;14.16;97.35;101569.03;5058741;28;20052;-87
2022/08/21 00:32:39;;;;;;;16.43;8.83;;;;;;;14.12;97.82;101567.81;5043027;28;20037;-87
2022/08/21 00:35:08;;;;;;;14.63;7.80;;;;;;;14.21;96.53;101568.41;5043445;28;20063;-87
2022/08/21 00:37:33;;;;;;;12.97;7.13;;;;;;;14.37;94.36;101564.31;5042539;28;20083;-87
2022/08/21 00:39:59;;;;;;;13.00;6.70;;;;;;;14.41;93.47;101562.00;5042859;28;20120;-87
2022/08/21 00:42:25;;;;;;;12.70;6.70;;;;;;;14.37;94.08;101569.75;5043422;28;20032;-87
2022/08/21 00:44:51;;;;;;;12.70;6.80;;;;;;;14.29;95.09;101556.38;5058663;28;20123;-87
2022/08/21 00:47:18;;;;;;;10.27;6.50;;;;;;;14.31;95.24;101555.13;5041684;28;20043;-87
2022/08/21 00:49:44;;;;;;;11.00;6.40;;;;;;;14.24;95.69;101559.78;5043605;28;20516;-87
2022/08/21 00:52:15;;;;;;;11.00;6.83;;;;;;;14.17;95.88;101548.91;5042074;28;20109;-86
2022/08/21 00:54:41;;;;;;;10.87;6.60;;;;;;;14.22;96.43;101561.88;5028437;28;20041;-87
2022/08/21 00:57:13;;;;;;;12.77;7.00;;;;;;;14.30;96.66;101558.06;5058202;28;20131;-87
2022/08/21 00:59:40;;;;;;;13.83;7.50;;;;;;;14.16;96.72;101560.03;5042897;28;20103;-87
2022/08/21 01:02:07;;;;;;;12.20;7.13;;;;;;;14.17;96.86;101559.81;5041704;28;20032;-87
2022/08/21 01:04:33;;;;;;;12.47;6.97;;;;;;;14.30;95.99;101569.78;5028208;28;20165;-87
2022/08/21 01:06:59;;;;;;;13.33;7.37;;;;;;;14.40;94.73;101572.06;5041305;28;20571;-87
2022/08/21 01:09:24;;;;;;;13.90;7.30;;;;;;;14.48;93.70;101562.78;5043230;28;20032;-88
2022/08/21 01:11:50;;;;;;;12.30;7.93;;;;;;;14.59;92.94;101555.78;5040813;28;20130;-87
2022/08/21 01:14:18;;;;;;;16.80;9.00;;;;;;;14.64;92.84;101564.16;5041242;28;20094;-87
2022/08/21 01:16:48;;;;;;;16.90;9.70;;;;;;;14.60;93.51;101566.44;5042103;28;20040;-88
2022/08/21 01:19:16;;;;;;;20.60;10.70;;;;;;;14.68;92.97;101566.22;5041637;28;20163;-87
2022/08/21 01:21:42;;;;;;;14.67;8.70;;;;;;;14.60;93.96;101562.91;5040769;28;20044;-87
2022/08/21 01:24:08;;;;;;;13.53;8.13;;;;;;;14.49;94.44;101567.19;5042727;28;20472;-88
2022/08/21 01:26:35;;;;;;;22.27;12.67;;;;;;;14.41;94.75;101551.91;5041727;28;20027;-87
2022/08/21 01:29:11;;;;;;;26.13;14.37;;;;;;;14.56;94.21;101557.03;5042232;28;20039;-87
2022/08/21 01:31:37;;;;;;;18.00;9.87;;;;;;;14.38;95.13;101554.25;5057483;28;20032;-87
2022/08/21 01:34:03;;;;;;;17.83;10.13;;;;;;;14.37;95.49;101561.56;5043158;28;20449;-88
2022/08/21 01:36:28;;;;;;;30.13;17.27;;;;;;;14.46;95.21;101562.16;5043208;28;20041;-87
2022/08/21 01:38:54;;;;;;;30.83;17.07;;;;;;;14.44;95.52;101559.66;5040619;28;20037;-87
2022/08/21 01:41:20;;;;;;;25.27;13.73;;;;;;;14.34;95.50;101553.84;5041778;28;20041;-87
2022/08/21 01:43:45;;;;;;;25.70;14.43;;;;;;;14.37;95.39;101566.22;5041789;28;20433;-88
2022/08/21 01:46:12;;;;;;;20.50;11.83;;;;;;;14.32;95.17;101566.84;5039683;28;20142;-87
2022/08/21 01:48:38;;;;;;;23.00;12.90;;;;;;;14.28;95.62;101560.16;5041597;28;20094;-86
2022/08/21 01:51:05;;;;;;;22.20;12.10;;;;;;;14.22;95.89;101561.88;5041687;28;20033;-87
2022/08/21 01:53:31;;;;;;;21.30;12.53;;;;;;;14.17;96.38;101561.69;5041757;28;21367;-86
2022/08/21 01:55:56;;;;;;;22.93;13.33;;;;;;;14.18;96.05;101549.75;5042372;28;20037;-87
2022/08/21 01:58:22;;;;;;;17.73;10.07;;;;;;;14.10;96.13;101556.31;5042235;28;20045;-87
2022/08/21 02:00:50;;;;;;;21.47;11.57;;;;;;;14.09;96.02;101553.78;5042796;28;20036;-87
2022/08/21 02:03:15;;;;;;;16.17;9.17;;;;;;;13.99;95.84;101552.38;5041346;28;20044;-86
2022/08/21 02:05:41;;;;;;;16.20;9.63;;;;;;;13.93;96.10;101550.50;5042063;28;20041;-86
2022/08/21 02:08:07;;;;;;;18.73;10.70;;;;;;;13.96;96.50;101549.25;5039604;28;20052;-87
2022/08/21 02:10:32;;;;;;;20.07;11.17;;;;;;;13.87;96.38;101543.22;5026574;28;20036;-87
2022/08/21 02:13:00;;;;;;;19.20;11.07;;;;;;;13.90;96.86;101545.50;5040876;28;20599;-87
2022/08/21 02:15:26;;;;;;;20.07;11.27;;;;;;;13.89;96.76;101540.28;5041485;28;20052;-87
2022/08/21 02:17:55;;;;;;;20.47;12.27;;;;;;;14.04;97.03;101540.00;5040900;28;20067;-87
2022/08/21 02:20:25;;;;;;;18.60;10.43;;;;;;;13.93;97.15;101542.34;5040720;28;20037;-87
2022/08/21 02:22:51;;;;;;;17.40;10.10;;;;;;;13.78;96.69;101533.63;5042961;28;20041;-87
2022/08/21 02:25:18;;;;;;;13.23;8.90;;;;;;;13.71;96.81;101527.34;5039382;28;20068;-87
2022/08/21 02:27:47;;;;;;;15.10;9.23;;;;;;;13.76;97.19;101531.13;5040436;28;20037;-87
2022/08/21 02:30:20;;;;;;;15.10;9.33;;;;;;;13.80;97.16;101534.22;5040101;28;20041;-88
2022/08/21 02:32:45;;;;;;;15.07;9.00;;;;;;;13.68;97.04;101529.47;5041563;28;20048;-88
2022/08/21 02:35:11;;;;;;;14.33;9.23;;;;;;;13.68;97.01;101534.91;5041249;28;20036;-87
2022/08/21 02:37:44;;;;;;;12.27;8.50;;;;;;;13.71;97.18;101530.06;5039494;28;20428;-87
2022/08/21 02:40:11;;;;;;;13.63;8.63;;;;;;;13.67;97.37;101525.06;5056403;28;20640;-89
2022/08/21 02:42:36;;;;;;;13.43;8.80;;;;;;;13.64;97.47;101522.78;5039583;28;20533;-87
2022/08/21 02:45:03;;;;;;;13.70;8.70;;;;;;;13.56;97.35;101519.44;5041417;28;20033;-87
2022/08/21 02:47:28;;;;;;;12.80;8.50;;;;;;;13.56;97.35;101520.31;5055990;28;20040;-87
2022/08/21 02:49:53;;;;;;;12.33;8.83;;;;;;;13.57;97.52;101519.25;5041313;28;20492;-87
2022/08/21 02:52:19;;;;;;;10.43;8.23;;;;;;;13.50;97.73;101512.97;5040995;28;20037;-87
2022/08/21 02:54:44;;;;;;;13.67;9.00;;;;;;;13.46;97.98;101523.47;5041089;28;20041;-87
2022/08/21 02:57:09;;;;;;;12.90;8.43;;;;;;;13.36;98.04;101519.53;5041178;28;20035;-87
2022/08/21 02:59:35;;;;;;;11.63;8.27;;;;;;;13.33;98.28;101512.59;5041864;28;20043;-87
2022/08/21 03:02:00;;;;;;;14.50;9.23;;;;;;;13.28;98.60;101513.22;5041438;28;20429;-87
2022/08/21 03:04:26;;;;;;;11.30;8.50;;;;;;;13.32;98.77;101514.47;5039213;28;20467;-87
2022/08/21 03:06:51;;;;;;;11.97;8.30;;;;;;;13.16;98.19;101514.94;5041812;28;20028;-87
2022/08/21 03:09:17;;;;;;;11.43;8.70;;;;;;;13.13;98.68;101518.09;5040947;28;20044;-88
2022/08/21 03:11:43;;;;;;;13.87;8.90;;;;;;;13.17;99.20;101522.06;5040534;28;20059;-87
2022/08/21 03:14:09;;;;;;;13.20;8.83;;;;;;;13.06;99.54;101514.56;5040126;28;20277;-87
2022/08/21 03:16:34;;;;;;;11.53;8.50;;;;;;;13.12;100.00;101525.44;5039875;28;20524;-87
2022/08/21 03:19:00;;;;;;;12.83;8.83;;;;;;;13.09;100.00;101525.81;5039217;28;20052;-87
2022/08/21 03:21:25;;;;;;;12.23;9.10;;;;;;;13.05;100.00;101519.13;5040976;28;20029;-87
2022/08/21 03:23:51;;;;;;;14.40;9.13;;;;;;;12.94;100.00;101512.47;5038529;28;20037;-87
2022/08/21 03:26:17;;;;;;;11.77;8.53;;;;;;;13.03;100.00;101523.09;5040310;28;20527;-87
2022/08/21 03:28:42;;;;;;;12.77;9.00;;;;;;;12.99;100.00;101509.94;5040899;28;20041;-87
2022/08/21 03:31:08;;;;;;;11.07;8.37;;;;;;;12.88;99.58;101502.44;5040839;28;20444;-87
2022/08/21 03:33:33;;;;;;;13.73;8.83;;;;;;;12.89;99.52;101500.53;5039395;28;20123;-87
2022/08/21 03:36:05;;;;;;;12.97;8.87;;;;;;;12.86;99.39;101509.97;5040082;28;20064;-88
2022/08/21 03:38:32;;;;;;;13.60;9.47;;;;;;;12.84;100.00;101510.16;5038233;28;20158;-87
2022/08/21 03:40:59;;;;;;;15.77;10.50;;;;;;;12.92;100.00;101503.69;5040436;28;20043;-86
2022/08/21 03:43:25;;;;;;;11.77;8.80;;;;;;;12.86;100.00;101509.97;5043609;28;20072;-87
2022/08/21 03:45:51;;;;;;;15.60;9.30;;;;;;;12.80;100.00;101505.38;5045112;28;20119;-87
2022/08/21 03:48:16;;;;;;;12.33;9.30;;;;;;;12.78;100.00;101513.75;5045115;28;20355;-87
2022/08/21 03:50:43;;;;;;;14.17;9.13;;;;;;;12.78;100.00;101513.75;5044018;28;20040;-86
2022/08/21 03:53:11;;;;;;;12.33;9.07;;;;;;;12.74;100.00;101506.19;5028814;28;20780;-87
2022/08/21 03:55:36;;;;;;;13.97;9.70;;;;;;;12.69;100.00;101508.72;5043987;28;20041;-88
2022/08/21 03:58:26;;;;;;;14.27;8.53;;;;;;;12.72;100.00;101506.41;5043861;28;20044;-87
2022/08/21 04:00:54;;;;;;;20.47;12.90;;;;;;;12.73;100.00;101508.09;5043893;28;20033;-87
2022/08/21 04:03:20;;;;;;;27.00;19.07;;;;;;;12.83;100.00;101504.94;5043331;28;20492;-87
2022/08/21 04:05:45;;;;;;;28.80;18.80;;;;;;;12.86;100.00;101503.69;5043118;28;20608;-86
2022/08/21 04:08:12;;;;;;;26.47;18.33;;;;;;;12.92;100.00;101508.28;5043441;28;20439;-87
2022/08/21 04:10:38;;;;;;;24.80;17.07;;;;;;;12.91;100.00;101507.44;5042885;28;20040;-86
2022/08/21 04:13:05;;;;;;;22.97;16.90;;;;;;;12.94;100.00;101504.28;5043254;28;20151;-86
2022/08/21 04:15:30;;;;;;;25.57;16.80;;;;;;;12.97;100.00;101501.19;5043498;28;20115;-86
2022/08/21 04:17:56;;;;;;;22.70;16.17;;;;;;;13.02;100.00;101510.59;5043763;28;20041;-86
2022/08/21 04:20:22;;;;;;;21.43;15.53;;;;;;;13.01;100.00;101504.28;5058975;28;20048;-86
2022/08/21 04:22:50;;;;;;;22.43;15.53;;;;;;;13.00;100.00;101505.31;5043740;28;20408;-86
2022/08/21 04:25:17;;;;;;;21.60;14.27;;;;;;;13.02;100.00;101507.88;5043493;28;20028;-86
2022/08/21 04:27:42;;;;;;;20.17;14.70;;;;;;;12.96;100.00;101506.81;5042711;28;20032;-86
2022/08/21 04:30:09;;;;;;;25.17;15.83;;;;;;;12.95;100.00;101508.69;5043475;28;20125;-87
2022/08/21 04:32:36;;;;;;;22.20;15.77;;;;;;;12.89;100.00;101509.56;5043859;28;20032;-88
2022/08/21 04:35:06;;;;;;;23.30;15.80;;;;;;;12.86;100.00;101514.56;5041554;28;20354;-87
2022/08/21 04:37:32;;;;;;;20.20;14.40;;;;;;;12.79;100.00;101517.28;5041044;28;20047;-86
2022/08/21 04:39:58;;;;;;;22.07;14.07;;;;;;;12.85;100.00;101535.47;5043311;28;20033;-88
2022/08/21 04:42:27;;;;;;;16.83;13.40;;;;;;;12.82;100.00;101528.59;5043220;28;20033;-86
2022/08/21 04:44:53;;;;;;;19.97;12.90;;;;;;;12.77;100.00;101527.53;5043656;28;20041;-88
2022/08/21 04:47:19;;;;;;;17.53;12.80;;;;;;;12.75;100.00;101530.47;5045109;28;20036;-87
2022/08/21 04:49:45;;;;;;;20.27;12.87;;;;;;;12.69;100.00;101527.75;5042557;28;20128;-86
2022/08/21 04:52:13;;;;;;;19.70;13.20;;;;;;;12.69;100.00;101533.19;5041357;28;20166;-87
2022/08/21 04:54:39;;;;;;;18.50;12.80;;;;;;;12.64;100.00;101529.19;5058080;28;20028;-86
2022/08/21 04:57:08;;;;;;;19.90;12.70;;;;;;;12.62;100.00;101534.03;5043447;28;20033;-87
2022/08/21 04:59:39;;;;;;;18.33;12.87;;;;;;;12.61;100.00;101529.63;5042685;28;21678;-87
2022/08/21 05:02:06;;;;;;;18.37;12.77;;;;;;;12.58;100.00;101526.47;5041949;28;21614;-87
2022/08/21 05:04:34;;;;;;;18.80;12.97;;;;;;;12.60;100.00;101527.94;5042458;28;20466;-86
2022/08/21 05:07:03;;;;;;;19.13;14.30;;;;;;;12.62;100.00;101536.75;5040560;28;20047;-87
2022/08/21 05:09:30;;;;;;;20.33;14.90;;;;;;;12.55;100.00;101525.03;5042873;28;20408;-86
2022/08/21 05:11:56;;;;;;;23.07;14.57;;;;;;;12.61;100.00;101524.19;5057787;28;20086;-87
2022/08/21 05:14:21;;;;;;;23.60;15.83;;;;;;;12.66;100.00;101538.00;5057240;28;20053;-88
2022/08/21 05:16:47;;;;;;;21.77;14.27;;;;;;;12.68;100.00;101534.25;5042694;28;20052;-87
2022/08/21 05:19:13;;;;;;;23.07;14.40;;;;;;;12.70;100.00;101543.00;5042177;28;20051;-85
2022/08/21 05:21:42;;;;;;;20.90;14.37;;;;;;;12.74;100.00;101539.69;5043264;28;20033;-86
2022/08/21 05:24:08;;;;;;;19.90;13.57;;;;;;;12.81;100.00;101545.09;5041554;28;20606;-87
2022/08/21 05:26:34;;;;;;;18.27;13.27;;;;;;;12.82;100.00;101542.19;5043142;28;20044;-87
2022/08/21 05:28:59;;;;;;;19.27;12.97;;;;;;;12.87;100.00;101546.16;5041584;28;20032;-86
2022/08/21 05:31:25;;;;;;;17.20;12.53;;;;;;;12.91;100.00;101553.69;5041756;28;20043;-86
2022/08/21 05:33:50;;;;;;;19.07;13.10;;;;;;;12.94;100.00;101549.72;5041048;28;20047;-86
2022/08/21 05:36:17;;;;;;;18.57;12.93;;;;;;;12.94;100.00;101553.25;5042106;28;20129;-86
2022/08/21 05:38:43;;;;;;;19.63;12.13;;;;;;;13.01;100.00;101558.69;5041848;28;20240;-86
2022/08/21 05:41:08;;;;;;;21.10;13.17;;;;;;;13.04;100.00;101552.00;5041995;28;20037;-86
2022/08/21 05:43:35;;;;;;;18.47;12.43;;;;;;;13.05;100.00;101553.69;5040302;28;20039;-87
2022/08/21 05:46:05;;;;;;;21.37;12.63;;;;;;;13.05;100.00;101550.97;5041570;28;20037;-87
2022/08/21 05:48:32;;;;;;;16.67;11.93;;;;;;;13.16;100.00;101555.75;5041832;28;20086;-87
2022/08/21 05:51:04;;;;;;;20.03;13.03;;;;;;;13.21;100.00;101552.41;5039869;28;20037;-85
2022/08/21 05:53:29;;;;;;;18.20;11.47;;;;;;;13.27;100.00;101560.56;5027287;28;20564;-86
2022/08/21 05:55:54;;;;;;;16.53;11.20;;;;;;;13.32;100.00;101560.72;5041905;28;20479;-85
2022/08/21 05:58:22;;;;;;;16.43;11.30;;;;;;;13.43;100.00;101563.91;5023417;28;20045;-86
2022/08/21 06:00:50;;;;;;;20.97;11.17;;;;;;;13.49;100.00;101568.47;5040689;28;20036;-85
2022/08/21 06:03:22;;;;;;;19.77;11.33;;;;;;;13.56;100.00;101557.56;5041363;28;20045;-87
2022/08/21 06:05:47;;;;;;;17.40;10.33;;;;;;;13.62;100.00;101562.16;5041366;28;20048;-87
2022/08/21 06:08:15;;;;;;;20.33;10.63;;;;;;;13.62;100.00;101556.72;5041176;28;20060;-84
2022/08/21 06:10:40;;;;;;;17.83;9.73;;;;;;;13.74;100.00;101556.91;5041653;28;20048;-87
2022/08/21 06:13:06;;;;;;;15.80;10.13;;;;;;;13.83;100.00;101559.16;5039569;28;20037;-85
2022/08/21 06:15:31;;;;;;;17.93;10.20;;;;;;;13.92;100.00;101562.44;5040827;28;20060;-86
2022/08/21 06:17:56;;;;;;;17.27;10.20;;;;;;;14.00;100.00;101562.19;5041257;28;20540;-87
2022/08/21 06:20:22;;;;;;;14.40;9.10;;;;;;;14.13;100.00;101563.19;5041315;28;20468;-86
2022/08/21 06:22:48;;;;;;;17.13;9.00;;;;;;;14.18;100.00;101566.94;5039430;28;20028;-86
2022/08/21 06:25:13;;;;;;;17.20;9.07;;;;;;;14.30;99.96;101558.91;5040458;28;20385;-86
2022/08/21 06:27:39;;;;;;;13.97;8.43;;;;;;;14.41;99.74;101564.72;5041935;28;20132;-87
2022/08/21 06:30:06;;;;;;;16.60;8.80;;;;;;;14.53;99.18;101568.41;5040562;28;20455;-86
2022/08/21 06:32:31;;;;;;;15.37;8.63;;;;;;;14.64;99.27;101561.44;5040640;28;20040;-87
2022/08/21 06:34:57;;;;;;;17.43;8.63;;;;;;;14.74;98.72;101558.22;5040420;28;20086;-86
2022/08/21 06:37:22;;;;;;;15.60;8.13;;;;;;;14.86;98.14;101561.88;5040585;28;20552;-86
2022/08/21 06:39:48;;;;;;;17.77;7.57;;;;;;;14.93;96.91;101565.41;5040509;28;20037;-85
2022/08/21 06:42:15;;;;;;;15.10;7.70;;;;;;;15.10;97.20;101568.38;5041590;28;20815;-87
2022/08/21 06:44:41;;;;;;;20.00;8.27;;;;;;;15.21;97.18;101564.09;5040657;28;20132;-86
2022/08/21 06:47:06;;;;;;;14.27;7.17;;;;;;;15.29;95.75;101566.53;5026338;28;20045;-84
2022/08/21 06:49:32;;;;;;;13.67;7.03;;;;;;;15.33;94.70;101562.28;5041081;28;20571;-86
2022/08/21 06:51:57;;;;;;;14.90;7.13;;;;;;;15.43;94.31;101563.66;5040544;28;20401;-86
2022/08/21 06:54:22;;;;;;;14.90;7.27;;;;;;;15.46;94.53;101564.03;5040665;28;20235;-85
2022/08/21 06:56:48;;;;;;;17.17;7.60;;;;;;;15.57;95.20;101562.44;5041370;28;20045;-86
2022/08/21 06:59:13;;;;;;;12.97;6.67;;;;;;;15.65;94.26;101559.41;5040863;28;20097;-85
2022/08/21 07:01:39;;;;;;;17.03;7.40;;;;;;;15.80;95.64;101560.94;5040796;28;20094;-86
2022/08/21 07:04:04;;;;;;;18.70;7.40;;;;;;;15.90;94.23;101563.13;5039912;28;20499;-86
2022/08/21 07:06:30;;;;;;;15.23;7.40;;;;;;;15.99;93.57;101564.47;5040701;28;20032;-87
2022/08/21 07:08:55;;;;;;;13.83;7.67;;;;;;;16.07;93.81;101558.69;5039928;28;20731;-87
2022/08/21 07:11:23;;;;;;;15.63;7.30;;;;;;;16.16;94.42;101559.22;5040515;28;20491;-86
2022/08/21 07:13:51;;;;;;;16.63;7.43;;;;;;;16.29;92.76;101564.50;5055752;28;20511;-85
2022/08/21 07:16:17;;;;;;;14.30;7.20;;;;;;;16.43;92.51;101558.81;5041687;28;20119;-86
2022/08/21 07:18:42;;;;;;;13.47;7.50;;;;;;;16.51;92.02;101561.25;5044857;28;20158;-86
2022/08/21 07:21:08;;;;;;;17.73;7.33;;;;;;;16.70;92.45;101556.50;5044616;28;20102;-87
2022/08/21 07:23:38;;;;;;;16.77;7.63;;;;;;;16.88;93.24;101550.94;5045213;28;20124;-86
2022/08/21 07:26:40;;;;;;;14.60;7.33;;;;;;;17.10;92.16;101557.75;5044979;28;20623;-87
2022/08/21 07:29:15;;;;;;;15.63;7.40;;;;;;;17.16;91.36;101562.28;5044489;28;20029;-85
2022/08/21 07:31:42;;;;;;;15.30;7.20;;;;;;;17.28;90.63;101559.53;5045385;28;20202;-86
2022/08/21 07:34:08;;;;;;;14.97;7.30;;;;;;;17.36;89.75;101560.00;5043934;28;20095;-84
2022/08/21 07:36:33;;;;;;;18.03;7.57;;;;;;;17.37;88.66;101558.09;5044645;28;20524;-87
2022/08/21 07:38:59;;;;;;;14.10;7.00;;;;;;;17.36;89.12;101557.25;5044733;28;20029;-87
2022/08/21 07:41:28;;;;;;;16.97;7.30;;;;;;;17.35;89.96;101555.59;5044704;28;20036;-87
2022/08/21 07:43:54;;;;;;;15.03;7.30;;;;;;;17.41;89.78;101561.16;5044403;28;20162;-86
2022/08/21 07:46:20;;;;;;;20.03;7.80;;;;;;;17.58;90.56;101564.84;5044334;28;20048;-87
2022/08/21 07:48:45;;;;;;;16.63;7.13;;;;;;;17.65;90.24;101554.59;5044396;28;20045;-86
2022/08/21 07:51:13;;;;;;;13.30;6.93;;;;;;;17.72;89.21;101560.78;5044940;28;20650;-87
2022/08/21 07:53:39;;;;;;;16.53;7.30;;;;;;;17.79;87.87;101566.13;5044033;28;20161;-84
2022/08/21 07:56:06;;;;;;;18.93;7.00;;;;;;;17.88;87.27;101561.91;5044201;28;20040;-87
2022/08/21 07:58:32;;;;;;;14.50;7.17;;;;;;;17.96;86.77;101554.41;5043916;28;20028;-86
2022/08/21 08:00:57;;;;;;;18.47;6.90;;;;;;;18.19;88.04;101550.72;5059010;28;20512;-87
2022/08/21 08:03:23;;;;;;;16.03;6.17;;;;;;;18.36;85.48;101554.34;5043458;28;20041;-87
2022/08/21 08:05:49;;;;;;;16.40;6.65;;;;;;;18.44;85.35;101555.88;5042102;28;20448;-85
2022/08/21 08:08:14;;;;;;;14.73;6.53;;;;;;;18.51;83.37;101555.72;5043659;28;20059;-84
2022/08/21 08:10:40;;;;;;;16.63;6.33;;;;;;;18.68;83.70;101559.28;5042860;28;20420;-88
2022/08/21 08:13:05;;;;;;;13.35;5.80;;;;;;;18.79;82.18;101554.78;5043664;28;20059;-86
2022/08/21 08:15:31;;;;;;;17.58;6.15;;;;;;;18.83;81.58;101553.19;5043378;28;20053;-87
2022/08/21 08:17:57;;;;;;;13.65;5.47;;;;;;;18.96;82.14;101557.56;5043935;28;20037;-85
2022/08/21 08:20:23;;;;;;;12.57;5.28;;;;;;;19.01;81.80;101559.53;5039929;28;20554;-85
2022/08/21 08:22:49;;;;;;;15.73;5.53;;;;;;;19.15;80.98;101560.88;5039625;28;20476;-86
2022/08/21 08:25:16;;;;;;;16.80;5.63;;;;;;;19.23;79.96;101559.63;5039028;28;20029;-85
2022/08/21 08:27:41;;;;;;;14.15;5.65;;;;;;;19.50;79.89;101561.63;5039007;28;20036;-84
2022/08/21 08:30:09;;;;;;;13.93;5.07;;;;;;;19.72;78.20;101559.72;5039523;28;20511;-87
2022/08/21 08:32:35;;;;;;;15.13;5.22;;;;;;;20.04;79.24;101558.19;5038710;28;20052;-87
2022/08/21 08:35:00;;;;;;;18.23;5.03;;;;;;;20.18;75.77;101551.19;5038782;28;20400;-87
2022/08/21 08:37:25;;;;;;;14.98;4.90;;;;;;;20.49;75.50;101550.66;5040525;28;20037;-87
2022/08/21 08:39:51;;;;;;;11.85;4.78;;;;;;;20.55;73.89;101555.13;5040216;28;20075;-87
2022/08/21 08:42:35;;;;;;;12.38;4.90;;;;;;;20.81;75.20;101553.44;5040310;28;20040;-87
2022/08/21 08:45:12;;;;;;;13.82;5.10;;;;;;;20.95;74.24;101551.03;5039776;28;20044;-86
2022/08/21 08:47:42;;;;;;;14.82;4.40;;;;;;;20.94;71.90;101549.38;5040341;28;22113;-86
2022/08/21 08:50:21;;;;;;;14.00;4.40;;;;;;;21.15;71.88;101546.78;5039807;28;20584;-87
2022/08/21 08:52:58;;;;;;;13.85;4.18;;;;;;;21.44;72.16;101546.38;5040396;28;20128;-86
2022/08/21 08:55:32;;;;;;;13.15;4.25;;;;;;;21.61;69.83;101537.94;5042759;28;20132;-86
2022/08/21 08:57:58;;;;;;;12.80;4.13;;;;;;;21.89;67.65;101544.94;5039194;28;20041;-86
2022/08/21 09:00:24;;;;;;;9.55;4.30;;;;;;;22.11;66.10;101535.59;5039538;28;20094;-87
2022/08/21 09:02:54;;;;;;;11.52;4.22;;;;;;;21.95;66.42;101537.50;5039816;28;20079;-85
2022/08/21 09:05:41;;;;;;;13.75;4.38;;;;;;;22.04;67.33;101530.34;5039448;28;20029;-84
2022/08/21 09:08:16;;;;;;;13.60;4.40;;;;;;;21.84;66.21;101533.88;5039397;28;20232;-88
2022/08/21 09:11:20;;;;;;;11.25;4.15;;;;;;;22.13;69.25;101527.91;5039061;28;20354;-87
2022/08/21 09:14:14;;;;;;;11.13;4.25;;;;;;;22.13;67.79;101520.44;5037761;28;20041;-85
2022/08/21 09:17:03;;;;;;;12.60;3.92;;;;;;;22.08;65.90;101524.00;5039484;28;20493;-86
2022/08/21 09:19:56;;;;;;;11.40;3.42;;;;;;;22.36;65.66;101510.81;5038661;28;20041;-88
2022/08/21 09:22:32;;;;;;;11.57;3.97;;;;;;;22.06;65.48;101520.69;5038966;28;20036;-86
2022/08/21 09:25:22;;;;;;;9.07;3.55;;;;;;;22.23;66.41;101516.84;5038461;28;20584;-86
2022/08/21 09:27:48;;;;;;;14.98;4.13;;;;;;;22.07;64.83;101527.88;5040044;28;20041;-86
2022/08/21 09:30:14;;;;;;;11.80;4.05;;;;;;;22.43;63.80;101513.31;5039000;28;20071;-88
2022/08/21 09:32:39;;;;;;;10.82;3.45;;;;;;;22.64;63.36;101519.66;5040420;28;20036;-86
2022/08/21 09:35:07;;;;;;;11.98;3.40;;;;;;;22.62;62.08;101515.53;5037488;28;20037;-85
2022/08/21 09:37:55;;;;;;;10.23;3.70;;;;;;;22.43;63.41;101521.59;5039105;28;20641;-88
2022/08/21 09:40:31;;;;;;;9.63;3.20;;;;;;;22.66;62.50;101522.16;5051135;28;20048;-88
2022/08/21 09:43:03;;;;;;;13.02;3.50;;;;;;;22.38;61.05;101524.34;5038560;28;20124;-85
2022/08/21 09:45:30;;;;;;;9.00;3.08;;;;;;;22.65;60.13;101531.53;5035144;28;20090;-87
2022/08/21 09:47:55;;;;;;;9.20;3.20;;;;;;;22.93;58.66;101525.44;5037514;28;20048;-86
2022/08/21 09:50:31;;;;;;;9.65;3.00;;;;;;;22.93;59.77;101524.59;5038019;28;20029;-89
2022/08/21 09:52:59;;;;;;;8.55;2.92;;;;;;;22.79;60.20;101529.03;5036355;28;20040;-86
2022/08/21 09:58:18;;;;;;;11.95;3.38;;;;;;;23.24;59.69;101519.03;5038332;28;20179;-86
2022/08/21 10:00:44;;;;;;;9.35;3.25;;;;;;;23.20;58.78;101520.69;5037017;28;20404;-85
2022/08/21 10:03:11;;;;;;;7.43;2.40;;;;;;;23.01;54.76;101531.47;5038411;28;20044;-84
2022/08/21 10:05:37;;;;;;;8.45;2.20;;;;;;;23.19;55.11;101522.63;5038425;28;20799;-89
2022/08/21 10:08:04;;;;;;;9.05;2.35;;;;;;;23.31;56.77;101513.19;5039358;28;20033;-89
2022/08/21 10:10:32;;;;;;;12.93;2.78;;;;;;;23.40;56.42;101514.28;5038264;28;20036;-87
2022/08/21 10:13:06;;;;;;;7.43;2.20;;;;;;;23.29;55.50;101520.97;5038638;28;20033;-86
2022/08/21 10:16:11;;;;;;;7.85;2.63;;;;;;;23.58;54.45;101515.56;5038211;28;20057;-88
2022/08/21 10:18:42;;;;;;;10.40;2.83;;;;;;;23.66;54.83;101523.28;5038421;28;20040;-86
2022/08/21 10:21:27;;;;;;;9.80;2.90;;;;;;;24.06;55.23;101526.97;5052651;28;20103;-88
2022/08/21 10:24:18;;;;;;;7.03;2.60;;;;;;;24.07;53.26;101519.47;5038837;28;20037;-89
2022/08/21 10:27:21;;;;;;;8.63;2.47;;;;;;;24.28;54.43;101534.84;5036936;28;20510;-86
2022/08/21 10:29:52;;;;;;;9.35;2.72;;;;;;;23.92;54.20;101525.94;5037912;28;20032;-87
2022/08/21 10:32:43;;;;;;;5.65;2.80;;;;;;;23.88;54.27;101517.41;5038205;28;20429;-88
2022/08/21 10:35:36;;;;;;;10.18;2.80;;;;;;;23.55;55.34;101521.69;5037284;28;20409;-87
2022/08/21 10:38:32;;;;;;;8.02;2.63;;;;;;;23.14;56.21;101519.88;5037636;28;20044;-88
2022/08/21 10:41:30;;;;;;;9.27;2.92;;;;;;;22.98;55.76;101513.53;5037494;28;20377;-87
2022/08/21 10:44:09;;;;;;;8.77;2.58;;;;;;;23.21;56.55;101512.13;5031522;28;20064;-85
2022/08/21 10:46:50;;;;;;;7.80;2.75;;;;;;;23.25;55.88;101506.84;5038292;28;20036;-85
2022/08/21 10:50:04;;;;;;;7.45;2.90;;;;;;;23.10;56.28;101514.06;5037447;28;20492;-86
2022/08/21 10:52:41;;;;;;;6.90;2.88;;;;;;;23.01;57.04;101510.22;5027837;28;20467;-87
2022/08/21 10:55:16;;;;;;;7.55;2.90;;;;;;;23.05;56.90;101514.09;5037780;28;20060;-88
2022/08/21 10:57:58;;;;;;;9.35;3.20;;;;;;;23.21;57.47;101508.53;5037808;28;20032;-85
2022/08/21 11:00:45;;;;;;;10.07;2.80;;;;;;;23.58;55.93;101507.28;5037735;28;20040;-87
2022/08/21 11:03:16;;;;;;;10.35;3.05;;;;;;;23.41;54.06;101508.44;5037632;28;20040;-86
2022/08/21 11:05:50;;;;;;;9.25;3.42;;;;;;;23.79;53.75;101507.19;5052658;28;21701;-86
2022/08/21 11:08:19;;;;;;;7.68;3.13;;;;;;;24.07;53.83;101497.34;5038044;28;20239;-87
2022/08/21 11:11:10;;;;;;;8.20;3.28;;;;;;;24.05;53.68;101499.56;5037113;28;20562;-85
2022/08/21 11:13:46;;;;;;;9.18;3.10;;;;;;;23.61;53.92;101509.50;5033568;28;20051;-87
2022/08/21 11:16:34;;;;;;;9.18;2.70;;;;;;;23.41;54.00;101502.09;5049483;28;20056;-89
2022/08/21 11:19:07;;;;;;;10.90;2.90;;;;;;;23.45;55.16;101503.19;5037701;28;20328;-86
2022/08/21 11:21:44;;;;;;;7.75;2.83;;;;;;;23.58;55.37;101501.75;5037072;28;20037;-89
2022/08/21 11:24:19;;;;;;;6.82;2.30;;;;;;;23.49;53.69;101507.06;5037831;28;20028;-84
2022/08/21 11:27:18;;;;;;;5.72;2.22;;;;;;;23.35;52.99;101504.06;5037773;28;20682;-87